Flight Track Log - Related Links

Times and Time Zones

All times are in EDT time to prevent confusion due to time zone crossing. See the FEX300 flight status page for this flight to view local times or setup timezone preferences in your user account.

Time Position Orientation Groundspeed Altitude Reporting Facility
EDT Latitude Longitude Course Direction KTS MPH feet Rate Location/Type
Fri 07:13:09 PM 43.0333 -81.1167 90° East 110 127 2,000  Level Toronto Center
Fri 07:14:09 PM 43.0333 -81.0667 90° East 130 150 3,200 1,350 Climbing Toronto Center
Fri 07:15:09 PM 43.0667 -81.0333 36° Northeast 140 161 4,700 1,500 Climbing Toronto Center
Fri 07:16:09 PM 43.0833 -80.9833 65° Northeast 150 173 6,200 1,150 Climbing Toronto Center
Fri 07:17:09 PM 43.1167 -80.9333 48° Northeast 150 173 7,000 450 Climbing Toronto Center
Fri 07:18:09 PM 43.1667 -80.8833 36° Northeast 200 230 7,100  Climbing Toronto Center
Fri 07:19:09 PM 43.2000 -80.8167 56° Northeast 220 253 7,000 -50 Descending Toronto Center
Fri 07:20:09 PM 43.2667 -80.7500 36° Northeast 240 276 7,000  Level Toronto Center
Fri 07:21:09 PM 43.3167 -80.6833 44° Northeast 240 276 7,000  Level Toronto Center
Fri 07:22:09 PM 43.3667 -80.6500 26° Northeast 240 276 7,000  Level Toronto Center
Fri 07:23:09 PM 43.4000 -80.5667 61° Northeast 240 276 7,000  Level Toronto Center
Fri 07:24:09 PM 43.4500 -80.5000 44° Northeast 240 276 7,000  Level Toronto Center
Fri 07:25:09 PM 43.5000 -80.4667 26° Northeast 240 276 7,000  Level Toronto Center
Fri 07:26:09 PM 43.5500 -80.4000 44° Northeast 240 276 7,000  Level Toronto Center
Fri 07:27:09 PM 43.6000 -80.3167 50° Northeast 240 276 7,000  Level Toronto Center
Fri 07:28:09 PM 43.6500 -80.2500 44° Northeast 240 276 7,000 -400 Level Toronto Center
Fri 07:29:09 PM 43.6833 -80.1833 55° Northeast 240 276 6,200 -800 Descending Toronto Center
Fri 07:30:09 PM 43.7333 -80.1000 50° Northeast 250 288 5,400 -600 Descending Toronto Center
Fri 07:31:09 PM 43.7500 -80.0333 71° East 260 299 5,000 -300 Descending Toronto Center
Fri 07:32:09 PM 43.7667 -79.9333 77° East 240 276 4,800 -650 Descending Toronto Center
Fri 07:33:09 PM 43.8000 -79.8333 65° Northeast 250 288 3,700 -850 Descending Toronto Center
Fri 07:34:09 PM 43.8500 -79.7667 44° Northeast 240 276 3,100 -400 Descending Toronto Center
Fri 07:35:09 PM 43.8833 -79.7000 55° Northeast 220 253 2,900 -450 Descending Toronto Center
Fri 07:36:09 PM 43.8833 -79.6333 90° East 220 253 2,200 -500 Descending Toronto Center
Fri 07:37:09 PM 43.8667 -79.5333 103° East 220 253 1,900 -250 Descending Toronto Center
Fri 07:38:09 PM 43.8667 -79.4667 90° East 210 242 1,700 -250 Descending Toronto Center
Fri 07:39:09 PM 43.8667 -79.4000 90° East 160 184 1,400 -400 Descending Toronto Center
Fri 07:40:09 PM 43.8667 -79.3500 90° East 130 150 900 -500 Descending Toronto Center

Login

Don't have an account? Register now (free) for customized features, flight alerts, and more!